createdAt,value
2024-05-09T00:00:18.448Z,4.90
2024-05-09T00:02:52.545Z,5.10
2024-05-09T00:05:18.919Z,4.50
2024-05-09T00:07:45.499Z,3.80
2024-05-09T00:10:21.853Z,3.80
2024-05-09T00:12:51.610Z,3.30
2024-05-09T00:15:17.675Z,3.80
2024-05-09T00:17:44.300Z,4.10
2024-05-09T00:20:17.586Z,3.50
2024-05-09T00:22:50.244Z,3.30
2024-05-09T00:25:16.292Z,3.00
2024-05-09T00:27:42.425Z,3.10
2024-05-09T00:30:14.262Z,2.80
2024-05-09T00:32:43.807Z,2.50
2024-05-09T00:35:10.361Z,2.90
2024-05-09T00:37:36.357Z,2.50
2024-05-09T00:40:02.799Z,2.70
2024-05-09T00:42:29.237Z,2.40
2024-05-09T00:44:55.407Z,2.30
2024-05-09T00:47:22.027Z,2.20
2024-05-09T00:49:48.402Z,2.40
2024-05-09T00:52:14.945Z,2.30
2024-05-09T00:54:41.027Z,2.40
2024-05-09T00:57:07.169Z,2.00
2024-05-09T00:59:33.325Z,2.20
2024-05-09T01:01:59.549Z,2.30
2024-05-09T01:04:25.807Z,2.20
2024-05-09T01:06:52.049Z,2.30
2024-05-09T01:09:18.512Z,2.10
2024-05-09T01:11:44.834Z,2.60
2024-05-09T01:14:11.314Z,2.10
2024-05-09T01:16:37.552Z,2.30
2024-05-09T01:19:04.716Z,2.60
2024-05-09T01:21:31.089Z,2.20
2024-05-09T01:23:57.744Z,2.40
2024-05-09T01:26:23.853Z,2.40
2024-05-09T01:28:50.093Z,2.20
2024-05-09T01:31:16.221Z,2.30
2024-05-09T01:33:43.027Z,2.30
2024-05-09T01:36:09.539Z,2.20
2024-05-09T01:38:35.792Z,2.20
2024-05-09T01:41:02.068Z,2.30
2024-05-09T01:43:28.278Z,2.30
2024-05-09T01:45:54.629Z,2.30
2024-05-09T01:48:21.312Z,2.20
2024-05-09T01:50:47.690Z,2.00
2024-05-09T01:53:14.687Z,2.20
2024-05-09T01:55:41.414Z,2.40
2024-05-09T01:58:08.160Z,2.70
2024-05-09T02:00:39.848Z,2.40
2024-05-09T02:03:14.531Z,2.20
2024-05-09T02:05:47.702Z,2.40
2024-05-09T02:08:23.331Z,2.60
2024-05-09T02:10:50.214Z,2.50
2024-05-09T02:13:17.695Z,2.10
2024-05-09T02:15:44.179Z,2.40
2024-05-09T02:18:11.089Z,2.70
2024-05-09T02:20:38.916Z,2.50
2024-05-09T02:23:05.563Z,2.60
2024-05-09T02:25:32.579Z,2.70
2024-05-09T02:27:59.041Z,2.40
2024-05-09T02:30:35.346Z,2.60
2024-05-09T02:33:06.219Z,2.80
2024-05-09T02:35:33.338Z,2.20
2024-05-09T02:37:59.641Z,2.40
2024-05-09T02:40:35.059Z,2.70
2024-05-09T02:43:03.850Z,2.50
2024-05-09T02:45:29.986Z,2.60
2024-05-09T02:47:56.256Z,3.60
2024-05-09T02:50:30.104Z,3.50
2024-05-09T02:53:03.452Z,3.10
2024-05-09T02:55:29.555Z,3.60
2024-05-09T02:57:55.641Z,3.30
2024-05-09T03:00:26.749Z,3.80
2024-05-09T03:03:01.532Z,3.40
2024-05-09T03:05:27.938Z,3.10
2024-05-09T03:07:54.322Z,3.10
2024-05-09T03:10:28.344Z,3.10
2024-05-09T03:12:55.399Z,3.10
2024-05-09T03:15:22.030Z,3.00
2024-05-09T03:17:48.745Z,3.20
2024-05-09T03:20:23.189Z,3.00
2024-05-09T03:22:53.470Z,3.00
2024-05-09T03:25:21.231Z,3.20
2024-05-09T03:27:48.059Z,3.40
2024-05-09T03:30:26.024Z,2.50
2024-05-09T03:33:00.400Z,2.90
2024-05-09T03:35:26.885Z,2.70
2024-05-09T03:37:52.945Z,2.80
2024-05-09T03:40:23.676Z,2.80
2024-05-09T03:42:52.548Z,3.10
2024-05-09T03:45:18.735Z,2.70
2024-05-09T03:47:45.020Z,2.90
2024-05-09T03:50:18.309Z,2.40
2024-05-09T03:52:51.976Z,2.70
2024-05-09T03:55:18.611Z,2.60
2024-05-09T03:57:44.755Z,2.50
2024-05-09T04:00:17.882Z,2.40
2024-05-09T04:02:51.581Z,2.40
2024-05-09T04:05:17.839Z,2.30
2024-05-09T04:07:44.127Z,2.20
2024-05-09T04:10:17.091Z,2.50
2024-05-09T04:12:52.736Z,2.70
2024-05-09T04:15:18.810Z,2.50
2024-05-09T04:17:50.853Z,2.40
2024-05-09T04:20:28.748Z,2.60
2024-05-09T04:23:02.910Z,2.80
2024-05-09T04:25:28.918Z,2.50
2024-05-09T04:27:55.302Z,2.10
2024-05-09T04:30:30.997Z,2.30
2024-05-09T04:33:03.826Z,2.30
2024-05-09T04:35:30.526Z,2.30
2024-05-09T04:37:56.899Z,2.30
2024-05-09T04:40:30.793Z,2.10
2024-05-09T04:43:00.031Z,2.60
2024-05-09T04:45:26.281Z,2.20
2024-05-09T04:47:53.391Z,2.00
2024-05-09T04:50:29.340Z,2.00
2024-05-09T04:53:01.801Z,2.00
2024-05-09T04:55:27.795Z,2.10
2024-05-09T04:57:54.875Z,2.20
2024-05-09T05:00:28.845Z,2.10
2024-05-09T05:03:05.105Z,2.00
2024-05-09T05:05:31.452Z,1.90
2024-05-09T05:07:58.103Z,2.20
2024-05-09T05:10:33.016Z,2.20
2024-05-09T05:13:22.172Z,2.10
2024-05-09T05:15:51.285Z,2.10
2024-05-09T05:18:17.540Z,2.10
2024-05-09T05:20:44.684Z,2.10
2024-05-09T05:23:12.702Z,2.10
2024-05-09T05:25:39.579Z,2.10
2024-05-09T05:28:06.065Z,1.90
2024-05-09T05:30:34.736Z,2.20
2024-05-09T05:33:01.823Z,1.80
2024-05-09T05:35:28.514Z,2.20
2024-05-09T05:37:54.978Z,1.60
2024-05-09T05:40:28.247Z,1.90
2024-05-09T05:43:02.580Z,1.90
2024-05-09T05:45:29.217Z,1.90
2024-05-09T05:47:55.603Z,1.90
2024-05-09T05:50:28.000Z,2.00
2024-05-09T05:53:01.464Z,1.70
2024-05-09T05:55:27.625Z,1.90
2024-05-09T05:57:53.703Z,2.10
2024-05-09T06:00:29.221Z,1.70
2024-05-09T06:03:02.387Z,1.80
2024-05-09T06:05:29.149Z,1.90
2024-05-09T06:07:55.738Z,1.80
2024-05-09T06:10:26.290Z,1.60
2024-05-09T06:13:01.081Z,1.60
2024-05-09T06:15:27.143Z,1.60
2024-05-09T06:17:54.470Z,1.90
2024-05-09T06:20:31.780Z,1.50
2024-05-09T06:23:02.624Z,1.70
2024-05-09T06:25:28.931Z,1.80
2024-05-09T06:27:55.070Z,2.00
2024-05-09T06:30:26.305Z,1.40
2024-05-09T06:33:01.338Z,1.30
2024-05-09T06:35:27.661Z,1.40
2024-05-09T06:37:53.946Z,1.50
2024-05-09T06:40:25.700Z,1.50
2024-05-09T06:43:00.841Z,1.60
2024-05-09T06:45:27.087Z,1.90
2024-05-09T06:47:53.749Z,1.70
2024-05-09T06:50:24.150Z,1.60
2024-05-09T06:52:54.289Z,1.50
2024-05-09T06:55:20.690Z,1.40
2024-05-09T06:57:47.036Z,1.70
2024-05-09T07:00:22.674Z,1.40
2024-05-09T07:02:56.545Z,1.60
2024-05-09T07:05:23.157Z,1.80
2024-05-09T07:07:49.316Z,1.50
2024-05-09T07:10:22.035Z,1.80
2024-05-09T07:12:54.839Z,1.70
2024-05-09T07:15:20.971Z,1.70
2024-05-09T07:17:47.198Z,1.80
2024-05-09T07:20:23.010Z,1.70
2024-05-09T07:22:54.041Z,1.60
2024-05-09T07:25:20.157Z,1.30
2024-05-09T07:27:46.315Z,1.40
2024-05-09T07:30:16.716Z,1.50
2024-05-09T07:32:49.631Z,1.50
2024-05-09T07:35:16.250Z,1.40
2024-05-09T07:37:42.413Z,1.50
2024-05-09T07:40:12.032Z,1.40
2024-05-09T07:42:45.442Z,1.80
2024-05-09T07:45:29.775Z,1.60
2024-05-09T07:49:44.355Z,1.90
2024-05-09T07:53:37.338Z,1.60
2024-05-09T07:55:59.921Z,1.60
2024-05-09T07:58:26.575Z,1.60
2024-05-09T08:00:53.778Z,1.60
2024-05-09T08:03:20.100Z,1.50
2024-05-09T08:05:46.395Z,1.60
2024-05-09T08:08:12.499Z,1.40
2024-05-09T08:10:38.854Z,1.30
2024-05-09T08:13:05.626Z,1.60
2024-05-09T08:15:31.928Z,1.30
2024-05-09T08:18:00.341Z,1.70
2024-05-09T08:20:31.280Z,2.80
2024-05-09T08:23:01.638Z,1.50
2024-05-09T08:25:28.509Z,1.30
2024-05-09T08:27:55.052Z,1.50
2024-05-09T08:30:29.717Z,1.50
2024-05-09T08:33:02.938Z,1.60
2024-05-09T08:35:29.343Z,1.30
2024-05-09T08:37:56.046Z,1.40
2024-05-09T08:40:30.663Z,1.60
2024-05-09T08:43:01.316Z,1.20
2024-05-09T08:45:27.582Z,1.40
2024-05-09T08:47:53.837Z,2.30
2024-05-09T08:50:31.472Z,1.60
2024-05-09T08:53:04.199Z,1.30
2024-05-09T08:55:30.343Z,1.60
2024-05-09T08:57:56.513Z,1.50
2024-05-09T09:00:33.364Z,1.50
2024-05-09T09:03:03.659Z,1.70
2024-05-09T09:05:30.936Z,1.50
2024-05-09T09:07:57.352Z,1.40
2024-05-09T09:10:29.811Z,1.50
2024-05-09T09:13:03.468Z,1.70
2024-05-09T09:15:29.739Z,1.70
2024-05-09T09:17:57.717Z,1.40
2024-05-09T09:20:35.408Z,1.30
2024-05-09T09:23:03.140Z,1.40
2024-05-09T09:25:29.761Z,1.30
2024-05-09T09:27:57.587Z,1.70
2024-05-09T09:30:34.598Z,1.70
2024-05-09T09:33:10.644Z,1.40
2024-05-09T09:35:39.328Z,1.60
2024-05-09T09:38:06.792Z,1.70
2024-05-09T09:40:37.194Z,1.80
2024-05-09T09:43:11.502Z,1.70
2024-05-09T09:45:38.139Z,1.80
2024-05-09T09:48:05.430Z,1.70
2024-05-09T09:50:34.817Z,1.80
2024-05-09T09:53:01.615Z,1.50
2024-05-09T09:55:28.047Z,1.40
2024-05-09T09:57:55.315Z,1.40
2024-05-09T10:00:27.266Z,1.50
2024-05-09T10:02:58.736Z,1.50
2024-05-09T10:05:25.026Z,1.30
2024-05-09T10:07:51.278Z,1.60
2024-05-09T10:10:31.447Z,1.70
2024-05-09T10:13:08.702Z,1.70
2024-05-09T10:15:45.044Z,1.70
2024-05-09T10:18:11.511Z,1.20
2024-05-09T10:20:44.374Z,1.50
2024-05-09T10:23:27.028Z,1.40
2024-05-09T10:25:59.870Z,1.70
2024-05-09T10:28:30.346Z,1.70
2024-05-09T10:31:08.069Z,1.80
2024-05-09T10:33:45.291Z,1.50
2024-05-09T10:36:38.771Z,1.60
2024-05-09T10:39:05.023Z,1.40
2024-05-09T10:41:31.043Z,1.30
2024-05-09T10:43:57.291Z,1.40
2024-05-09T10:46:23.624Z,1.40
2024-05-09T10:48:50.115Z,1.50
2024-05-09T10:51:17.484Z,1.60
2024-05-09T10:53:44.774Z,1.30
2024-05-09T10:56:12.451Z,1.40
2024-05-09T10:58:38.673Z,1.30
2024-05-09T11:01:07.202Z,1.20
2024-05-09T11:03:34.732Z,1.40
2024-05-09T11:06:01.306Z,1.40
2024-05-09T11:08:28.156Z,1.30
2024-05-09T11:10:55.485Z,1.50
2024-05-09T11:13:31.948Z,1.40
2024-05-09T11:15:59.536Z,1.40
2024-05-09T11:18:28.940Z,1.40
2024-05-09T11:20:57.188Z,1.30
2024-05-09T11:23:29.485Z,1.30
2024-05-09T11:25:59.417Z,1.60
2024-05-09T11:28:27.464Z,1.40
2024-05-09T11:31:09.959Z,1.20
2024-05-09T11:33:41.322Z,1.50
2024-05-09T11:36:08.633Z,1.60
2024-05-09T11:38:35.039Z,1.50
2024-05-09T11:41:01.950Z,1.50
2024-05-09T11:43:28.145Z,1.20
2024-05-09T11:45:55.722Z,1.30
2024-05-09T11:48:21.881Z,1.40
2024-05-09T11:50:48.135Z,1.10
2024-05-09T11:53:14.141Z,1.40
2024-05-09T11:55:40.656Z,1.60
2024-05-09T11:58:07.620Z,1.40
2024-05-09T12:00:37.196Z,1.50
2024-05-09T12:03:04.936Z,1.40
2024-05-09T12:05:32.158Z,1.70
2024-05-09T12:07:58.581Z,1.40
2024-05-09T12:10:32.571Z,1.50
2024-05-09T12:13:01.606Z,1.60
2024-05-09T12:15:28.363Z,1.40
2024-05-09T12:17:55.856Z,1.50
2024-05-09T12:20:28.838Z,1.40
2024-05-09T12:23:02.222Z,1.20
2024-05-09T12:25:28.314Z,1.30
2024-05-09T12:27:54.425Z,1.60
2024-05-09T12:30:32.319Z,1.40
2024-05-09T12:33:03.812Z,1.40
2024-05-09T12:35:30.304Z,1.40
2024-05-09T12:37:56.528Z,1.40
2024-05-09T12:40:31.376Z,1.50
2024-05-09T12:43:02.182Z,1.50
2024-05-09T12:45:28.784Z,1.60
2024-05-09T12:47:55.038Z,1.50
2024-05-09T12:50:29.873Z,1.50
2024-05-09T12:52:59.040Z,1.30
2024-05-09T12:55:25.183Z,1.20
2024-05-09T12:57:51.572Z,1.60
2024-05-09T13:00:24.024Z,1.50
2024-05-09T13:02:57.605Z,1.40
2024-05-09T13:05:24.309Z,1.50
2024-05-09T13:07:51.185Z,1.50
2024-05-09T13:10:25.532Z,1.50
2024-05-09T13:12:57.750Z,1.70
2024-05-09T13:15:23.765Z,1.60
2024-05-09T13:17:49.927Z,1.60
2024-05-09T13:20:25.717Z,1.30
2024-05-09T13:22:55.780Z,1.40
2024-05-09T13:25:23.451Z,1.50
2024-05-09T13:27:50.277Z,1.80
2024-05-09T13:30:25.872Z,1.70
2024-05-09T13:32:56.513Z,1.50
2024-05-09T13:35:22.707Z,1.50
2024-05-09T13:37:49.053Z,1.90
2024-05-09T13:40:23.197Z,2.00
2024-05-09T13:42:53.501Z,2.00
2024-05-09T13:45:19.866Z,1.60
2024-05-09T13:47:46.007Z,1.90
2024-05-09T13:50:20.154Z,1.50
2024-05-09T13:52:53.429Z,1.60
2024-05-09T13:55:19.676Z,1.70
2024-05-09T13:57:46.098Z,1.60
2024-05-09T14:00:26.414Z,1.60
2024-05-09T14:02:58.698Z,1.40
2024-05-09T14:05:25.129Z,1.70
2024-05-09T14:07:51.194Z,1.80
2024-05-09T14:10:23.355Z,1.70
2024-05-09T14:12:54.853Z,1.70
2024-05-09T14:15:21.065Z,1.60
2024-05-09T14:17:47.740Z,1.70
2024-05-09T14:20:22.927Z,1.60
2024-05-09T14:22:54.918Z,1.90
2024-05-09T14:25:23.534Z,1.70
2024-05-09T14:27:49.851Z,1.60
2024-05-09T14:30:22.944Z,1.80
2024-05-09T14:32:56.871Z,1.50
2024-05-09T14:35:23.497Z,1.80
2024-05-09T14:37:49.671Z,1.70
2024-05-09T14:40:30.476Z,1.50
2024-05-09T14:43:02.920Z,1.70
2024-05-09T14:45:29.438Z,1.60
2024-05-09T14:47:55.823Z,1.50
2024-05-09T14:50:28.061Z,1.70
2024-05-09T14:53:01.070Z,1.40
2024-05-09T14:55:27.264Z,1.50
2024-05-09T14:57:53.661Z,1.50
2024-05-09T15:00:26.268Z,1.40
2024-05-09T15:02:55.698Z,1.90
2024-05-09T15:05:22.100Z,1.70
2024-05-09T15:07:48.338Z,1.60
2024-05-09T15:10:23.777Z,1.70
2024-05-09T15:12:57.780Z,1.50
2024-05-09T15:15:23.759Z,1.90
2024-05-09T15:17:50.720Z,1.80
2024-05-09T15:20:20.486Z,1.70
2024-05-09T15:22:50.671Z,1.60
2024-05-09T15:25:17.008Z,1.50
2024-05-09T15:27:44.292Z,2.30
2024-05-09T15:30:10.983Z,1.50
2024-05-09T15:32:37.870Z,1.60
2024-05-09T15:35:04.867Z,1.80
2024-05-09T15:37:31.482Z,1.60
2024-05-09T15:39:58.490Z,3.20
2024-05-09T15:42:24.919Z,1.50
2024-05-09T15:44:52.478Z,1.80
2024-05-09T15:47:21.676Z,1.40
2024-05-09T15:49:48.076Z,1.70
2024-05-09T15:52:17.270Z,1.40
2024-05-09T15:54:47.264Z,1.70
2024-05-09T15:57:13.437Z,1.50
2024-05-09T15:59:39.465Z,1.80
2024-05-09T16:02:05.618Z,1.90
2024-05-09T16:04:31.675Z,1.70
2024-05-09T16:07:01.224Z,1.90
2024-05-09T16:09:27.517Z,1.80
2024-05-09T16:11:54.246Z,1.60
2024-05-09T16:14:21.176Z,1.70
2024-05-09T16:16:48.376Z,1.80
2024-05-09T16:19:15.214Z,1.60
2024-05-09T16:21:41.645Z,1.40
2024-05-09T16:24:07.697Z,1.80
2024-05-09T16:26:34.528Z,1.80
2024-05-09T16:29:00.812Z,1.60
2024-05-09T16:31:27.087Z,1.70
2024-05-09T16:33:53.485Z,1.50
2024-05-09T16:36:19.681Z,1.70
2024-05-09T16:38:45.947Z,1.90
2024-05-09T16:41:14.311Z,1.80
2024-05-09T16:43:40.463Z,1.60
2024-05-09T16:46:06.588Z,2.00
2024-05-09T16:48:32.863Z,1.70
2024-05-09T16:50:59.221Z,2.00
2024-05-09T16:53:25.677Z,2.00
2024-05-09T16:55:51.727Z,2.30
2024-05-09T16:58:18.392Z,1.90
2024-05-09T17:00:44.688Z,2.10
2024-05-09T17:03:14.504Z,1.80
2024-05-09T17:05:43.354Z,2.00
2024-05-09T17:08:10.120Z,1.90
2024-05-09T17:10:36.707Z,1.80
2024-05-09T17:13:05.142Z,1.70
2024-05-09T17:15:33.307Z,1.40
2024-05-09T17:18:00.247Z,1.70
2024-05-09T17:20:32.689Z,1.70
2024-05-09T17:23:02.433Z,4.70
2024-05-09T17:25:28.711Z,2.30
2024-05-09T17:27:55.279Z,1.60
2024-05-09T17:30:28.997Z,1.90
2024-05-09T17:33:01.846Z,1.90
2024-05-09T17:35:28.095Z,1.60
2024-05-09T17:37:54.778Z,1.90
2024-05-09T17:40:27.742Z,1.60
2024-05-09T17:42:59.643Z,1.90
2024-05-09T17:45:25.790Z,1.90
2024-05-09T17:47:52.176Z,1.80
2024-05-09T17:50:26.669Z,1.80
2024-05-09T17:52:57.715Z,1.80
2024-05-09T17:55:24.246Z,1.90
2024-05-09T17:57:50.386Z,1.70
2024-05-09T18:00:24.754Z,1.70
2024-05-09T18:03:00.296Z,1.90
2024-05-09T18:05:28.585Z,1.80
2024-05-09T18:07:56.477Z,1.80
2024-05-09T18:10:36.776Z,1.90
2024-05-09T18:13:08.697Z,1.80
2024-05-09T18:15:35.461Z,1.80
2024-05-09T18:18:03.067Z,1.90
2024-05-09T18:20:38.094Z,2.00
2024-05-09T18:23:10.100Z,1.80
2024-05-09T18:25:36.561Z,1.60
2024-05-09T18:28:03.218Z,1.70
2024-05-09T18:30:34.692Z,1.80
2024-05-09T18:33:04.765Z,1.90
2024-05-09T18:35:32.495Z,2.10
2024-05-09T18:37:58.646Z,1.90
2024-05-09T18:40:32.798Z,2.20
2024-05-09T18:43:02.312Z,2.10
2024-05-09T18:45:28.543Z,2.50
2024-05-09T18:47:55.327Z,2.40
2024-05-09T18:50:31.838Z,2.60
2024-05-09T18:53:03.048Z,2.00
2024-05-09T18:55:29.418Z,2.30
2024-05-09T18:57:55.660Z,2.10
2024-05-09T19:00:31.491Z,2.30
2024-05-09T19:03:03.962Z,2.50
2024-05-09T19:05:30.581Z,2.50
2024-05-09T19:07:57.040Z,2.30
2024-05-09T19:10:28.804Z,1.70
2024-05-09T19:12:59.504Z,1.80
2024-05-09T19:15:26.444Z,1.90
2024-05-09T19:17:52.685Z,2.10
2024-05-09T19:20:25.464Z,1.90
2024-05-09T19:22:58.113Z,1.50
2024-05-09T19:25:24.254Z,1.50
2024-05-09T19:27:50.457Z,1.50
2024-05-09T19:30:28.912Z,2.00
2024-05-09T19:33:03.564Z,1.80
2024-05-09T19:35:30.159Z,2.00
2024-05-09T19:37:56.682Z,2.00
2024-05-09T19:40:29.143Z,2.20
2024-05-09T19:42:59.071Z,2.10
2024-05-09T19:45:26.075Z,2.00
2024-05-09T19:47:54.078Z,2.20
2024-05-09T19:50:27.137Z,2.10
2024-05-09T19:53:02.808Z,2.20
2024-05-09T19:55:29.000Z,1.90
2024-05-09T19:57:55.213Z,2.20
2024-05-09T20:00:26.282Z,2.10
2024-05-09T20:02:58.383Z,2.30
2024-05-09T20:05:25.257Z,2.30
2024-05-09T20:07:51.701Z,1.90
2024-05-09T20:10:23.744Z,2.20
2024-05-09T20:12:53.078Z,2.10
2024-05-09T20:15:19.575Z,2.50
2024-05-09T20:17:45.975Z,2.50
2024-05-09T20:20:23.450Z,2.10
2024-05-09T20:22:54.972Z,2.00
2024-05-09T20:25:21.686Z,2.30
2024-05-09T20:27:47.970Z,2.60
2024-05-09T20:30:20.925Z,2.30
2024-05-09T20:32:51.231Z,2.50
2024-05-09T20:35:17.476Z,2.90
2024-05-09T20:37:43.502Z,2.60
2024-05-09T20:40:18.146Z,2.50
2024-05-09T20:42:51.064Z,2.80
2024-05-09T20:45:17.083Z,2.90
2024-05-09T20:47:43.257Z,2.70
2024-05-09T20:50:19.705Z,2.80
2024-05-09T20:52:50.683Z,3.00
2024-05-09T20:55:16.909Z,3.10
2024-05-09T20:57:43.554Z,3.20
2024-05-09T21:00:15.353Z,3.80
2024-05-09T21:02:45.510Z,4.00
2024-05-09T21:05:12.727Z,4.10
2024-05-09T21:07:39.653Z,3.60
2024-05-09T21:10:15.101Z,3.20
2024-05-09T21:12:42.480Z,3.40
2024-05-09T21:15:08.641Z,3.10
2024-05-09T21:17:35.459Z,3.40
2024-05-09T21:20:01.811Z,3.30
2024-05-09T21:22:28.106Z,3.00
2024-05-09T21:24:54.184Z,2.90
2024-05-09T21:27:20.300Z,3.30
2024-05-09T21:29:46.395Z,3.10
2024-05-09T21:32:12.443Z,3.70
2024-05-09T21:34:38.632Z,4.20
2024-05-09T21:37:04.793Z,3.60
2024-05-09T21:39:31.651Z,3.40
2024-05-09T21:42:01.148Z,2.90
2024-05-09T21:44:29.390Z,3.10
2024-05-09T21:46:55.583Z,2.90
2024-05-09T21:49:22.045Z,3.00
2024-05-09T21:51:48.915Z,2.60
2024-05-09T21:54:15.245Z,2.80
2024-05-09T21:56:41.355Z,2.80
2024-05-09T21:59:07.419Z,2.60
2024-05-09T22:01:35.227Z,3.00
2024-05-09T22:04:02.095Z,2.90
2024-05-09T22:06:28.418Z,2.70
2024-05-09T22:08:54.513Z,2.30
2024-05-09T22:11:20.817Z,2.60
2024-05-09T22:13:46.935Z,2.40
2024-05-09T22:16:13.381Z,2.40
2024-05-09T22:18:40.304Z,2.60
2024-05-09T22:21:07.029Z,3.10
2024-05-09T22:23:33.240Z,2.90
2024-05-09T22:25:59.427Z,3.20
2024-05-09T22:28:25.730Z,2.80
2024-05-09T22:30:54.703Z,2.90
2024-05-09T22:33:20.918Z,2.90
2024-05-09T22:35:47.434Z,2.80
2024-05-09T22:38:13.476Z,3.10
2024-05-09T22:40:47.277Z,3.10
2024-05-09T22:43:17.661Z,2.90
2024-05-09T22:45:44.386Z,3.00
2024-05-09T22:48:10.764Z,3.00
2024-05-09T22:50:36.923Z,3.00
2024-05-09T22:53:03.194Z,3.40
2024-05-09T22:55:29.391Z,3.10
2024-05-09T22:57:56.235Z,3.30
2024-05-09T23:00:30.691Z,3.20
2024-05-09T23:02:59.420Z,3.30
2024-05-09T23:05:25.626Z,3.00
2024-05-09T23:07:51.910Z,2.80
2024-05-09T23:10:25.141Z,3.40
2024-05-09T23:12:58.324Z,3.00
2024-05-09T23:15:24.607Z,2.70
2024-05-09T23:17:50.787Z,2.80
2024-05-09T23:20:25.831Z,2.80
2024-05-09T23:22:56.165Z,2.90
2024-05-09T23:25:22.480Z,3.10
2024-05-09T23:27:48.768Z,3.20
2024-05-09T23:30:25.421Z,4.80
2024-05-09T23:32:55.685Z,2.90
2024-05-09T23:35:22.491Z,3.20
2024-05-09T23:37:48.552Z,3.40
2024-05-09T23:40:18.772Z,3.10
2024-05-09T23:42:46.428Z,3.20
2024-05-09T23:45:12.724Z,3.20
2024-05-09T23:47:38.937Z,3.40
2024-05-09T23:50:11.178Z,3.10
2024-05-09T23:52:42.388Z,3.40
2024-05-09T23:55:08.876Z,3.70
2024-05-09T23:57:35.090Z,3.00
